ニューヨーク/JFK の空港の天気 - METARとTAF

ジョン・F・ケネディ国際空港 ( KJFK / JFK ) - アメリカ ニューヨーク州ニューヨーク
飛行場実況気象(Metar)
観測時間11/16 10:51 EST (11/16 15:51 UTC)
風向・風速西北西 8m/s
視程10km以上
天気現象
全天の4割程度の雲 雲底高度 580m
全天の8割程度の雲 雲底高度 1520m
全天の8割程度の雲 雲底高度 2290m
全天の8割程度の雲 雲底高度 7620m
気温6.1℃
湿度82%
気圧1004.7hPa
METARKJFK 161551Z 30016KT 10SM SCT019 BKN050 BKN075 BKN250 06/03 A2967 RMK AO2 PK WND 31026/1525 SLP047 SCT V BKN T00610033
過去の天気等 Google飛行場航空写真 Wunderground天気予報

過去48時間のMETAR

飛行場予報(TAF)
発表時間: 11/16 11:05 EST (11/16 16:05 UTC)
予報対象時間: 16日11時 EST ~ 17日13時 EST
風向・風速西北西 8m/s 瞬間風速 12m/s
視程10km以上
全天の8割程度の雲 雲底高度 1520m
全天の8割程度の雲 雲底高度 2440m
全天の8割程度の雲 雲底高度 7620m
16日16時 EST から
風向・風速西北西 8m/s 瞬間風速 13m/s
視程10km以上
全天の4割程度の雲 雲底高度 7620m
16日22時 EST から
風向・風速西 8m/s 瞬間風速 11m/s
視程10km以上
少しの雲 雲底高度 7620m
17日5時 EST から
風向・風速西 8m/s
視程10km以上
全天の4割程度の雲 雲底高度 910m
全天の4割程度の雲 雲底高度 7620m
17日9時 EST から
風向・風速西 6m/s
視程10km以上
全天の4割程度の雲 雲底高度 7620m
KJFK 161605Z 1616/1718 30016G24KT P6SM BKN050 BKN080 BKN250
FM162100 29016G25KT P6SM SCT250
FM170300 27016G22KT P6SM FEW250
FM171000 28015KT P6SM SCT030 SCT250
FM171400 28012KT P6SM SCT250